Time;durP1;ratioP1;P1;durP2;ratioP2;P2;SDS_P1;SDS_P2;PMS_P1;PMS_P2;Temp;Humidity;BMP_temperature;BMP_pressure;BME280_temperature;BME280_humidity;BME280_pressure;Samples;Min_cycle;Max_cycle;Signal;HPM_P1;HPM_P2
2022/08/12 00:44:12;;;;;;;2.70;2.50;;;16.70;95.80;;;;;;494015;241;28853;-67
2022/08/12 00:46:35;;;;;;;2.63;2.43;;;16.60;95.90;;;;;;493970;241;28796;-68
2022/08/12 00:48:33;;;;;;;2.67;2.47;;;16.60;96.10;;;;;;493807;241;28827;-68
2022/08/12 00:50:35;;;;;;;2.30;2.20;;;16.60;95.80;;;;;;493969;241;28888;-68
2022/08/12 00:52:36;;;;;;;2.43;2.33;;;16.60;96.20;;;;;;493993;241;28786;-68
2022/08/12 00:54:37;;;;;;;2.37;2.20;;;16.60;96.20;;;;;;494071;241;29465;-71
2022/08/12 00:56:38;;;;;;;2.70;2.60;;;16.60;96.30;;;;;;493970;241;29257;-68
2022/08/12 00:58:40;;;;;;;2.60;2.50;;;16.40;96.30;;;;;;494041;241;29302;-69
2022/08/12 01:00:41;;;;;;;2.40;2.30;;;16.30;96.60;;;;;;493965;241;29400;-68
2022/08/12 01:02:42;;;;;;;2.77;2.57;;;16.10;96.70;;;;;;494062;241;28796;-68
2022/08/12 01:11:42;;;;;;;2.93;2.70;;;15.90;98.10;;;;;;494050;241;28814;-68
2022/08/12 01:13:44;;;;;;;2.97;2.77;;;15.90;98.30;;;;;;494060;241;28823;-70
2022/08/12 01:15:45;;;;;;;2.70;2.50;;;15.90;98.20;;;;;;494030;241;28785;-70
2022/08/12 01:17:46;;;;;;;2.80;2.60;;;15.90;98.00;;;;;;493949;241;28834;-69
2022/08/12 01:19:48;;;;;;;2.50;2.40;;;16.00;97.90;;;;;;494024;241;28888;-68
2022/08/12 01:21:49;;;;;;;2.53;2.40;;;16.10;98.00;;;;;;494023;241;28858;-68
2022/08/12 01:23:50;;;;;;;2.70;2.50;;;16.10;97.60;;;;;;494040;241;28870;-70
2022/08/12 01:25:52;;;;;;;2.77;2.67;;;16.20;97.00;;;;;;494000;241;28832;-67
2022/08/12 01:27:52;;;;;;;2.73;2.57;;;16.40;96.90;;;;;;493953;241;28945;-68
2022/08/12 01:29:54;;;;;;;2.53;2.40;;;16.40;96.90;;;;;;494013;241;29763;-68
2022/08/12 01:31:55;;;;;;;2.50;2.40;;;16.40;97.00;;;;;;494079;241;29258;-68
2022/08/12 01:33:58;;;;;;;2.70;2.60;;;16.30;97.00;;;;;;493909;241;29778;-70
2022/08/12 01:35:59;;;;;;;2.30;2.20;;;16.20;97.00;;;;;;493700;241;29312;-67
2022/08/12 01:37:59;;;;;;;3.00;2.80;;;16.10;97.20;;;;;;493901;241;28833;-69
2022/08/12 01:40:00;;;;;;;2.60;2.40;;;15.90;97.50;;;;;;494026;241;28789;-67
2022/08/12 01:42:01;;;;;;;2.70;2.50;;;16.20;95.60;;;;;;494039;241;28826;-68
2022/08/12 01:44:03;;;;;;;2.93;2.73;;;16.50;96.10;;;;;;494017;241;28838;-70
2022/08/12 01:46:04;;;;;;;3.50;3.20;;;17.20;93.30;;;;;;493985;241;28831;-73
2022/08/12 01:48:05;;;;;;;3.17;2.97;;;17.50;92.60;;;;;;494005;241;28850;-69
2022/08/12 01:50:06;;;;;;;3.33;3.07;;;17.70;92.30;;;;;;494022;241;28792;-67
2022/08/12 01:52:08;;;;;;;3.00;2.80;;;17.90;92.00;;;;;;494044;239;28798;-69
2022/08/12 01:54:09;;;;;;;3.60;3.00;;;18.00;91.70;;;;;;494067;241;28883;-70
2022/08/12 01:56:10;;;;;;;3.20;2.90;;;17.90;92.70;;;;;;494002;241;29238;-68
2022/08/12 01:58:11;;;;;;;3.00;2.80;;;17.40;94.30;;;;;;494043;241;29319;-68
2022/08/12 02:00:12;;;;;;;3.27;3.07;;;16.60;95.20;;;;;;494040;241;29239;-68
2022/08/12 02:02:15;;;;;;;3.10;2.80;;;16.70;95.40;;;;;;494042;241;28796;-68
2022/08/12 02:11:17;;;;;;;3.53;2.83;;;15.90;97.20;;;;;;493887;241;28849;-68
2022/08/12 02:13:15;;;;;;;3.33;3.13;;;16.30;95.10;;;;;;493770;241;28907;-67
2022/08/12 02:15:16;;;;;;;4.63;3.10;;;17.00;94.10;;;;;;493991;237;28826;-68
2022/08/12 02:17:17;;;;;;;3.00;2.80;;;17.50;92.80;;;;;;494006;241;28933;-71
2022/08/12 02:19:19;;;;;;;3.13;2.90;;;17.80;92.20;;;;;;493994;241;28840;-68
2022/08/12 02:21:20;;;;;;;3.40;3.10;;;18.00;91.80;;;;;;494025;241;28820;-68
2022/08/12 02:23:21;;;;;;;3.10;2.90;;;18.10;91.60;;;;;;494019;241;28915;-69
2022/08/12 02:25:22;;;;;;;5.10;3.20;;;18.20;91.50;;;;;;494006;241;29412;-70
2022/08/12 02:27:24;;;;;;;7.13;3.17;;;18.20;91.30;;;;;;493986;241;29369;-72
2022/08/12 02:29:25;;;;;;;5.00;3.03;;;18.20;91.30;;;;;;494050;241;29344;-67
2022/08/12 02:31:26;;;;;;;3.37;3.07;;;18.20;91.30;;;;;;494053;241;29304;-69
2022/08/12 02:33:27;;;;;;;3.87;3.33;;;18.20;91.50;;;;;;494027;241;28814;-67
2022/08/12 02:35:29;;;;;;;3.00;2.80;;;18.10;91.50;;;;;;493824;241;28837;-68
2022/08/12 02:37:30;;;;;;;4.10;3.20;;;18.10;91.60;;;;;;493983;241;28953;-72
2022/08/12 02:39:32;;;;;;;2.77;2.57;;;18.10;91.70;;;;;;494033;241;28861;-67
2022/08/12 02:41:32;;;;;;;3.13;2.93;;;18.00;91.70;;;;;;493967;241;28837;-69
2022/08/12 02:43:34;;;;;;;2.70;2.50;;;18.00;91.60;;;;;;493991;241;28854;-68
2022/08/12 02:45:36;;;;;;;3.00;2.80;;;18.00;91.70;;;;;;494027;241;28832;-68
2022/08/12 02:47:38;;;;;;;3.23;3.00;;;18.00;91.80;;;;;;493860;241;28827;-72
2022/08/12 02:49:39;;;;;;;4.43;2.73;;;18.00;91.70;;;;;;494007;241;28839;-68
2022/08/12 02:51:40;;;;;;;2.77;2.57;;;18.00;91.70;;;;;;493994;239;28872;-68
2022/08/12 02:53:41;;;;;;;3.20;2.60;;;18.00;91.80;;;;;;494000;241;29310;-68
2022/08/12 02:55:44;;;;;;;5.10;2.50;;;18.00;91.80;;;;;;494023;241;29340;-73
2022/08/12 02:57:44;;;;;;;3.03;2.83;;;18.00;91.70;;;;;;493833;241;29272;-69
2022/08/12 02:59:47;;;;;;;3.07;2.70;;;18.00;91.70;;;;;;494017;241;29329;-69
2022/08/12 03:01:46;;;;;;;5.80;2.80;;;18.00;91.70;;;;;;493871;241;28805;-68
2022/08/12 03:03:48;;;;;;;4.10;3.10;;;18.00;91.80;;;;;;494027;241;28926;-68
2022/08/12 03:05:49;;;;;;;2.67;2.47;;;18.10;91.70;;;;;;494021;241;28828;-71
2022/08/12 03:07:50;;;;;;;4.20;2.83;;;18.10;91.70;;;;;;493945;241;28800;-68
2022/08/12 03:09:51;;;;;;;2.80;2.60;;;18.00;91.80;;;;;;494001;241;28939;-68
2022/08/12 03:11:52;;;;;;;3.10;2.90;;;17.90;92.70;;;;;;494044;241;28866;-68
2022/08/12 03:13:54;;;;;;;3.27;2.97;;;17.70;92.70;;;;;;494018;239;28822;-69
2022/08/12 03:15:55;;;;;;;2.20;2.10;;;17.40;94.20;;;;;;494004;241;28864;-71
2022/08/12 03:17:56;;;;;;;3.17;2.97;;;16.80;95.30;;;;;;493984;241;29342;-67
2022/08/12 03:19:59;;;;;;;2.67;2.50;;;16.30;96.50;;;;;;494005;241;29379;-68
2022/08/12 03:22:11;;;;;;;2.80;2.60;;;15.90;97.50;;;;;;493910;241;29371;-67
2022/08/12 03:24:00;;;;;;;2.73;2.60;;;15.80;98.00;;;;;;492946;241;29319;-68
2022/08/12 03:26:01;;;;;;;2.87;2.67;;;15.70;98.10;;;;;;494043;241;28878;-76
2022/08/12 03:28:02;;;;;;;2.73;2.53;;;15.70;98.00;;;;;;494020;241;28887;-67
2022/08/12 03:30:04;;;;;;;2.90;2.70;;;15.70;97.90;;;;;;494080;241;28827;-69
2022/08/12 03:32:05;;;;;;;3.23;3.00;;;15.70;97.90;;;;;;494037;241;28789;-68
2022/08/12 03:34:11;;;;;;;2.90;2.70;;;15.80;97.80;;;;;;494019;241;28825;-68
2022/08/12 03:36:10;;;;;;;3.00;2.80;;;15.90;97.50;;;;;;493634;241;28841;-68
2022/08/12 03:38:14;;;;;;;2.70;2.60;;;15.90;97.40;;;;;;493993;241;29317;-67
2022/08/12 03:41:33;;;;;;;3.03;2.83;;;15.90;97.30;;;;;;493787;241;28795;-68
2022/08/12 03:42:16;;;;;;;2.47;2.37;;;15.90;96.90;;;;;;492197;241;28808;-68
2022/08/12 04:00:34;;;;;;;3.13;2.50;;;16.20;96.10;;;;;;494007;241;28871;-71
2022/08/12 04:02:35;;;;;;;2.93;2.73;;;16.20;96.20;;;;;;494003;241;28888;-67
2022/08/12 04:04:37;;;;;;;2.60;2.40;;;16.20;96.10;;;;;;493999;241;28839;-68
2022/08/12 04:06:38;;;;;;;2.70;2.50;;;16.20;96.30;;;;;;493936;241;28818;-68
2022/08/12 04:08:39;;;;;;;2.80;2.60;;;16.30;96.30;;;;;;493801;241;28831;-67
2022/08/12 04:13:17;;;;;;;2.70;2.50;;;16.30;96.40;;;;;;493997;241;28894;-67
2022/08/12 04:15:17;;;;;;;2.90;2.50;;;16.40;96.30;;;;;;493822;241;28879;-67
2022/08/12 04:17:17;;;;;;;2.27;2.17;;;16.40;96.30;;;;;;493914;241;28812;-67
2022/08/12 04:19:19;;;;;;;2.50;2.40;;;16.50;96.00;;;;;;493990;241;28878;-72
2022/08/12 04:21:20;;;;;;;2.43;2.33;;;16.50;95.80;;;;;;493944;241;28825;-68
2022/08/12 04:23:22;;;;;;;2.60;2.40;;;16.50;95.90;;;;;;493968;241;28950;-69
2022/08/12 04:25:22;;;;;;;2.80;2.60;;;16.50;95.90;;;;;;493895;241;28806;-67
2022/08/12 04:27:24;;;;;;;2.40;2.30;;;16.50;95.90;;;;;;493971;241;29282;-69
2022/08/12 04:29:25;;;;;;;2.90;2.40;;;16.50;95.90;;;;;;494064;241;29309;-71
2022/08/12 04:31:27;;;;;;;2.70;2.30;;;16.50;95.70;;;;;;494064;241;29246;-67
2022/08/12 04:33:27;;;;;;;2.43;2.23;;;16.60;95.90;;;;;;493786;241;29301;-68
2022/08/12 04:35:29;;;;;;;2.40;2.20;;;16.60;96.00;;;;;;493932;241;28890;-68
2022/08/12 04:37:30;;;;;;;2.30;2.20;;;16.70;95.80;;;;;;493934;241;28865;-68
2022/08/12 04:39:31;;;;;;;2.90;2.70;;;16.60;96.70;;;;;;494083;241;28879;-72
2022/08/12 04:41:32;;;;;;;2.50;2.30;;;16.50;97.00;;;;;;494067;241;28806;-68
2022/08/12 04:43:34;;;;;;;2.13;2.03;;;16.50;96.60;;;;;;494066;241;28844;-70
2022/08/12 04:45:36;;;;;;;2.30;2.10;;;16.30;97.30;;;;;;494047;241;28803;-68
2022/08/12 04:47:36;;;;;;;2.60;2.37;;;16.10;97.80;;;;;;493926;241;28900;-67
2022/08/12 04:49:38;;;;;;;2.63;2.43;;;15.90;98.40;;;;;;494057;241;29220;-72
2022/08/12 04:51:39;;;;;;;2.17;2.07;;;15.70;98.80;;;;;;494033;241;28906;-70
2022/08/12 04:53:40;;;;;;;2.43;2.23;;;15.60;99.30;;;;;;494046;241;29338;-71
2022/08/12 04:55:44;;;;;;;2.37;2.27;;;15.30;99.40;;;;;;494043;241;29340;-69
2022/08/12 04:57:42;;;;;;;2.60;2.40;;;15.10;99.50;;;;;;493731;241;29342;-69
2022/08/12 04:59:44;;;;;;;2.80;2.60;;;15.00;99.90;;;;;;494051;241;28930;-69
2022/08/12 05:01:45;;;;;;;2.57;2.37;;;14.90;99.80;;;;;;494031;241;28811;-69
2022/08/12 05:03:46;;;;;;;2.70;2.50;;;15.00;99.80;;;;;;493994;241;28894;-71
2022/08/12 05:05:47;;;;;;;2.20;2.10;;;15.00;99.80;;;;;;493987;241;28801;-68
2022/08/12 05:07:49;;;;;;;2.57;2.37;;;15.00;99.80;;;;;;493930;241;28899;-68
2022/08/12 05:09:50;;;;;;;2.60;2.40;;;15.00;99.80;;;;;;494043;241;28892;-68
2022/08/12 05:11:51;;;;;;;2.43;2.23;;;15.10;99.80;;;;;;494053;241;28869;-68
2022/08/12 05:13:52;;;;;;;2.40;2.30;;;15.20;99.80;;;;;;494018;241;28937;-68
2022/08/12 05:15:54;;;;;;;2.70;2.50;;;15.20;99.90;;;;;;493979;237;28889;-68
2022/08/12 05:17:55;;;;;;;2.30;2.20;;;15.40;99.70;;;;;;493986;241;29315;-68
2022/08/12 05:19:56;;;;;;;2.40;2.30;;;15.50;99.60;;;;;;494051;241;29409;-71
2022/08/12 05:21:58;;;;;;;2.20;2.10;;;15.60;99.60;;;;;;494011;241;28809;-68
2022/08/12 05:23:59;;;;;;;2.30;2.20;;;15.70;99.80;;;;;;494015;241;28810;-70
2022/08/12 05:26:00;;;;;;;2.30;2.17;;;15.70;99.90;;;;;;493996;241;28948;-68
2022/08/12 05:28:01;;;;;;;2.43;2.33;;;15.80;99.90;;;;;;493964;241;28851;-68
2022/08/12 05:30:03;;;;;;;2.37;2.27;;;15.90;99.90;;;;;;494018;241;28870;-72
2022/08/12 05:32:04;;;;;;;2.43;2.33;;;15.90;99.80;;;;;;494016;241;28807;-68
2022/08/12 05:34:05;;;;;;;3.47;2.73;;;16.00;99.90;;;;;;493936;241;29308;-69
2022/08/12 05:36:06;;;;;;;2.70;2.50;;;16.00;99.80;;;;;;493567;239;29361;-69
2022/08/12 05:40:28;;;;;;;2.87;2.63;;;16.00;99.80;;;;;;493876;241;29367;-71
2022/08/12 05:42:30;;;;;;;2.43;2.23;;;16.10;99.90;;;;;;493998;241;29328;-70
2022/08/12 05:44:30;;;;;;;2.57;2.37;;;16.20;99.50;;;;;;493888;241;29250;-68
2022/08/12 05:46:31;;;;;;;2.50;2.30;;;16.30;99.40;;;;;;493968;241;29310;-71
2022/08/12 05:48:32;;;;;;;2.83;2.63;;;16.50;99.10;;;;;;494033;241;28844;-68
2022/08/12 05:50:34;;;;;;;2.90;2.70;;;17.00;98.20;;;;;;493997;241;28839;-70
2022/08/12 05:52:35;;;;;;;3.40;2.87;;;17.40;97.60;;;;;;493999;241;28822;-68
2022/08/12 05:54:40;;;;;;;3.87;2.97;;;17.80;96.70;;;;;;493996;241;28827;-68
2022/08/12 05:56:38;;;;;;;5.03;3.00;;;18.00;96.30;;;;;;493635;241;28839;-69
2022/08/12 05:58:38;;;;;;;2.90;2.70;;;18.20;95.80;;;;;;493963;241;28927;-69
2022/08/12 06:00:41;;;;;;;3.27;3.07;;;18.40;95.60;;;;;;494043;241;28850;-70
2022/08/12 06:02:41;;;;;;;3.13;2.83;;;18.50;95.10;;;;;;493964;241;29160;-68
2022/08/12 06:04:42;;;;;;;3.20;2.83;;;18.60;94.90;;;;;;494025;241;28841;-67
2022/08/12 06:06:50;;;;;;;3.10;2.80;;;18.70;94.70;;;;;;493986;237;29747;-73
2022/08/12 06:08:46;;;;;;;7.23;2.97;;;18.80;94.70;;;;;;493561;241;29281;-70
2022/08/12 06:10:46;;;;;;;2.60;2.40;;;18.90;94.60;;;;;;493920;241;29356;-70
2022/08/12 06:12:48;;;;;;;3.10;2.87;;;18.90;94.70;;;;;;494050;241;28807;-69
2022/08/12 06:14:48;;;;;;;4.07;2.90;;;19.00;94.70;;;;;;494050;241;28924;-69
2022/08/12 06:16:50;;;;;;;3.00;2.80;;;19.10;94.30;;;;;;494010;241;28836;-69
2022/08/12 06:18:51;;;;;;;5.27;2.70;;;19.10;94.10;;;;;;494050;241;28885;-69
2022/08/12 06:20:57;;;;;;;3.30;2.77;;;19.20;94.30;;;;;;494047;241;28956;-72
2022/08/12 06:22:54;;;;;;;3.27;2.63;;;19.30;94.10;;;;;;493579;241;28807;-69
2022/08/12 06:24:55;;;;;;;4.63;3.00;;;19.30;94.00;;;;;;494042;241;28852;-70
2022/08/12 06:26:56;;;;;;;4.20;2.53;;;19.50;94.10;;;;;;493991;241;28799;-69
2022/08/12 06:28:59;;;;;;;2.83;2.60;;;19.40;93.90;;;;;;494041;241;28912;-69
2022/08/12 06:30:58;;;;;;;2.90;2.70;;;19.40;93.90;;;;;;493895;241;29379;-72
2022/08/12 06:33:00;;;;;;;3.40;2.70;;;19.50;93.70;;;;;;494040;241;30028;-69
2022/08/12 06:35:01;;;;;;;2.70;2.50;;;19.60;93.50;;;;;;494039;241;29318;-69
2022/08/12 06:37:03;;;;;;;3.37;2.87;;;19.70;93.60;;;;;;493890;241;29458;-69
2022/08/12 06:39:03;;;;;;;2.93;2.73;;;19.80;93.40;;;;;;494021;241;28938;-69
2022/08/12 06:43:24;;;;;;;3.30;3.00;;;19.80;93.30;;;;;;494027;241;28823;-68
2022/08/12 06:45:26;;;;;;;3.10;2.90;;;19.80;93.40;;;;;;494036;241;28952;-69
2022/08/12 06:47:27;;;;;;;2.63;2.43;;;19.90;93.40;;;;;;493995;241;28864;-73
2022/08/12 06:49:33;;;;;;;3.33;3.03;;;19.90;93.60;;;;;;494036;241;28890;-68
2022/08/12 06:51:29;;;;;;;4.10;2.93;;;20.00;93.30;;;;;;493611;241;28848;-70
2022/08/12 06:53:33;;;;;;;3.20;2.90;;;20.10;93.10;;;;;;494013;241;28800;-69
2022/08/12 06:55:35;;;;;;;2.93;2.70;;;20.20;92.80;;;;;;494017;241;29240;-69
2022/08/12 06:57:36;;;;;;;7.10;2.90;;;20.30;92.60;;;;;;494000;241;29327;-70
2022/08/12 06:59:39;;;;;;;4.13;2.97;;;20.30;92.70;;;;;;494029;241;28951;-69
2022/08/12 07:01:38;;;;;;;2.97;2.77;;;20.50;92.40;;;;;;493842;241;28823;-69
2022/08/12 07:03:40;;;;;;;3.57;2.87;;;20.60;92.30;;;;;;494021;241;28953;-71
2022/08/12 07:05:41;;;;;;;5.30;2.90;;;20.70;92.20;;;;;;494065;241;28800;-68
2022/08/12 07:07:46;;;;;;;3.57;3.27;;;20.70;92.10;;;;;;493972;241;28946;-69
2022/08/12 07:09:43;;;;;;;5.73;3.10;;;20.70;92.10;;;;;;493681;241;28814;-69
2022/08/12 07:11:45;;;;;;;3.17;2.90;;;20.70;92.00;;;;;;494031;241;28864;-69
2022/08/12 07:13:47;;;;;;;5.13;2.87;;;20.80;92.10;;;;;;494055;241;28914;-71
2022/08/12 07:15:47;;;;;;;3.30;3.10;;;20.90;91.70;;;;;;493994;241;28789;-69
2022/08/12 07:17:48;;;;;;;3.70;3.00;;;20.90;91.90;;;;;;493955;241;29392;-69
2022/08/12 07:19:50;;;;;;;3.20;2.90;;;21.00;91.80;;;;;;494019;241;29245;-69
2022/08/12 07:21:51;;;;;;;3.70;2.70;;;21.10;91.70;;;;;;494026;241;29242;-69
2022/08/12 07:23:52;;;;;;;3.27;2.97;;;21.10;91.70;;;;;;494068;241;28946;-74
2022/08/12 07:25:53;;;;;;;5.20;3.40;;;21.20;91.50;;;;;;494022;241;28924;-69
2022/08/12 07:27:55;;;;;;;3.20;2.83;;;21.30;91.60;;;;;;493974;241;28974;-69
2022/08/12 07:29:56;;;;;;;2.80;2.60;;;21.30;91.50;;;;;;494021;241;28900;-68
2022/08/12 07:31:58;;;;;;;3.17;2.63;;;21.30;91.50;;;;;;494014;241;28815;-69
2022/08/12 07:33:58;;;;;;;3.83;2.87;;;21.40;91.30;;;;;;494010;241;28860;-68
2022/08/12 07:36:01;;;;;;;3.03;2.70;;;21.40;91.10;;;;;;493955;241;28895;-68
2022/08/12 07:38:01;;;;;;;2.57;2.37;;;21.50;90.90;;;;;;493958;241;28855;-70
2022/08/12 07:40:02;;;;;;;3.00;2.80;;;21.40;91.20;;;;;;494023;241;28836;-68
2022/08/12 07:42:04;;;;;;;3.33;3.03;;;21.50;91.20;;;;;;493816;241;29298;-70
2022/08/12 07:44:05;;;;;;;4.93;2.90;;;21.50;90.80;;;;;;494001;241;29534;-68
2022/08/12 07:46:06;;;;;;;3.93;3.27;;;21.50;90.70;;;;;;493973;241;29312;-77
2022/08/12 07:48:07;;;;;;;3.10;2.90;;;21.60;90.60;;;;;;493906;241;28827;-71
2022/08/12 07:50:08;;;;;;;3.20;2.90;;;21.50;90.50;;;;;;494027;241;28848;-69
2022/08/12 07:52:10;;;;;;;2.93;2.73;;;21.60;90.60;;;;;;494029;241;28839;-69
2022/08/12 07:54:12;;;;;;;3.20;2.90;;;21.60;90.40;;;;;;494009;241;28799;-69
2022/08/12 07:56:12;;;;;;;3.37;2.93;;;21.60;90.40;;;;;;493888;241;28837;-69
2022/08/12 07:58:13;;;;;;;3.30;2.97;;;21.70;90.50;;;;;;494042;241;28855;-72
2022/08/12 08:00:15;;;;;;;3.70;2.90;;;21.60;90.50;;;;;;494025;241;28839;-69
2022/08/12 08:02:16;;;;;;;4.50;3.33;;;21.80;90.50;;;;;;494011;241;28916;-69
2022/08/12 08:06:41;;;;;;;5.33;2.77;;;21.80;90.40;;;;;;493987;237;29270;-69
2022/08/12 08:08:40;;;;;;;3.10;2.90;;;21.90;90.30;;;;;;493745;241;29391;-69
2022/08/12 08:10:39;;;;;;;3.07;2.87;;;22.00;90.30;;;;;;493811;241;29341;-68
2022/08/12 08:12:53;;;;;;;3.10;2.90;;;22.00;90.30;;;;;;494031;241;28939;-69
2022/08/12 08:14:57;;;;;;;3.10;2.80;;;22.00;90.20;;;;;;494054;241;29261;-70
2022/08/12 08:16:55;;;;;;;3.77;2.80;;;22.00;90.00;;;;;;493771;241;29410;-68
2022/08/12 08:18:58;;;;;;;6.23;3.10;;;22.10;90.20;;;;;;494029;241;29295;-70
2022/08/12 08:20:58;;;;;;;4.70;2.67;;;22.40;89.90;;;;;;493936;241;28915;-68
2022/08/12 08:22:59;;;;;;;2.80;2.60;;;22.30;89.40;;;;;;493964;241;28857;-69
2022/08/12 08:25:01;;;;;;;2.90;2.70;;;22.40;89.90;;;;;;494048;241;28918;-70
2022/08/12 08:27:01;;;;;;;4.50;2.70;;;22.50;89.50;;;;;;493952;241;28846;-69
2022/08/12 08:29:03;;;;;;;3.60;2.50;;;22.60;88.80;;;;;;493991;241;28896;-69
2022/08/12 08:31:04;;;;;;;2.63;2.43;;;22.50;89.40;;;;;;494028;241;28851;-69
2022/08/12 08:33:08;;;;;;;3.00;2.70;;;22.50;88.90;;;;;;494041;241;28887;-69
2022/08/12 08:35:10;;;;;;;2.90;2.70;;;22.50;89.00;;;;;;493873;241;28899;-69
2022/08/12 08:37:08;;;;;;;3.17;2.70;;;22.40;89.40;;;;;;493615;241;28816;-69
2022/08/12 08:39:09;;;;;;;3.30;2.80;;;22.40;89.10;;;;;;493984;241;29367;-69
2022/08/12 08:43:31;;;;;;;3.60;2.70;;;22.60;89.20;;;;;;494033;241;29218;-68
2022/08/12 08:45:31;;;;;;;3.20;2.90;;;22.70;89.20;;;;;;493944;241;29344;-69
2022/08/12 08:47:33;;;;;;;8.20;2.90;;;22.60;88.90;;;;;;493978;241;29313;-72
2022/08/12 08:49:35;;;;;;;3.70;2.77;;;22.90;88.50;;;;;;494034;241;29272;-69
2022/08/12 08:51:35;;;;;;;3.53;3.23;;;22.90;88.00;;;;;;493932;241;28857;-71
2022/08/12 08:53:40;;;;;;;3.00;2.80;;;22.90;87.90;;;;;;493942;241;28892;-69
2022/08/12 08:55:39;;;;;;;3.10;2.80;;;22.90;88.70;;;;;;493792;241;28823;-69
2022/08/12 08:57:39;;;;;;;2.70;2.50;;;22.90;88.90;;;;;;493794;241;28926;-72
2022/08/12 08:59:40;;;;;;;4.80;2.33;;;22.90;88.50;;;;;;494030;241;28797;-69
2022/08/12 09:01:41;;;;;;;3.10;2.80;;;22.80;88.60;;;;;;493995;241;28836;-69
2022/08/12 09:03:43;;;;;;;2.77;2.57;;;23.00;88.30;;;;;;493927;241;28831;-69
2022/08/12 09:05:44;;;;;;;3.10;2.70;;;23.20;87.50;;;;;;493975;241;28899;-69
2022/08/12 09:07:45;;;;;;;2.73;2.53;;;23.20;87.20;;;;;;493971;241;28931;-72
2022/08/12 09:09:46;;;;;;;2.73;2.53;;;23.20;87.40;;;;;;494033;241;29247;-69
2022/08/12 09:14:08;;;;;;;3.07;2.87;;;23.20;85.50;;;;;;494025;241;28802;-69
2022/08/12 09:16:08;;;;;;;2.90;2.70;;;23.20;85.50;;;;;;493872;241;28888;-69
2022/08/12 09:18:10;;;;;;;2.67;2.47;;;23.30;85.60;;;;;;494054;241;28910;-73
2022/08/12 09:20:11;;;;;;;3.80;2.67;;;23.20;86.00;;;;;;494038;241;28811;-70
2022/08/12 09:22:12;;;;;;;2.23;2.13;;;23.30;86.20;;;;;;494029;241;28861;-69
2022/08/12 09:24:14;;;;;;;2.70;2.50;;;23.30;85.60;;;;;;494026;241;28817;-69
2022/08/12 09:26:17;;;;;;;2.47;2.33;;;23.30;86.30;;;;;;493851;241;29394;-69
2022/08/12 09:28:16;;;;;;;3.00;2.30;;;23.30;85.30;;;;;;491734;241;36650;-72
2022/08/12 09:30:17;;;;;;;2.47;2.23;;;23.30;85.70;;;;;;494037;241;28784;-68
2022/08/12 09:32:18;;;;;;;2.50;2.30;;;23.40;85.10;;;;;;493762;241;29315;-70
2022/08/12 09:34:19;;;;;;;2.47;2.30;;;23.60;83.10;;;;;;494001;241;28804;-69
2022/08/12 09:36:21;;;;;;;2.83;2.40;;;23.40;83.90;;;;;;493895;241;29202;-69
2022/08/12 09:38:23;;;;;;;2.30;2.20;;;23.50;82.30;;;;;;494052;241;28860;-72
2022/08/12 09:40:23;;;;;;;3.20;2.50;;;23.40;83.50;;;;;;493987;241;28814;-69
2022/08/12 09:47:04;;;;;;;2.50;2.30;;;23.80;81.30;;;;;;493970;241;28881;-69
2022/08/12 09:49:08;;;;;;;2.20;1.97;;;23.90;82.20;;;;;;494027;241;28957;-69
2022/08/12 09:51:07;;;;;;;2.43;2.23;;;24.00;81.10;;;;;;493842;241;29022;-72
2022/08/12 09:53:07;;;;;;;5.87;2.17;;;23.90;81.40;;;;;;494020;241;28810;-69
2022/08/12 09:55:10;;;;;;;2.10;1.87;;;24.00;80.90;;;;;;494038;241;28837;-71
2022/08/12 09:57:10;;;;;;;2.43;2.23;;;24.20;81.60;;;;;;493838;241;29337;-69
2022/08/12 09:59:11;;;;;;;2.20;2.10;;;24.20;81.10;;;;;;494029;241;29315;-69
2022/08/12 10:01:12;;;;;;;4.07;2.20;;;24.10;82.50;;;;;;494026;241;29263;-69
2022/08/12 10:03:15;;;;;;;2.13;2.00;;;24.10;82.10;;;;;;494056;241;28870;-69
2022/08/12 10:05:15;;;;;;;6.47;2.03;;;24.10;81.10;;;;;;493977;239;28871;-70
2022/08/12 10:07:16;;;;;;;3.93;2.30;;;23.90;81.80;;;;;;493785;241;28806;-70
2022/08/12 10:09:17;;;;;;;4.63;2.20;;;24.30;81.20;;;;;;494041;241;28866;-71
2022/08/12 10:13:41;;;;;;;3.40;2.43;;;24.30;81.50;;;;;;493898;241;28882;-69
2022/08/12 10:15:43;;;;;;;3.63;2.63;;;24.40;81.20;;;;;;494027;241;29401;-69
2022/08/12 10:17:44;;;;;;;3.53;2.20;;;24.50;81.50;;;;;;493955;241;29259;-69
2022/08/12 10:19:45;;;;;;;2.90;2.60;;;24.60;80.40;;;;;;494069;241;28833;-72
2022/08/12 10:21:46;;;;;;;2.70;2.23;;;24.50;80.00;;;;;;494027;241;28901;-69
2022/08/12 10:23:47;;;;;;;3.90;2.00;;;24.50;79.90;;;;;;494045;241;28824;-71
2022/08/12 10:30:28;;;;;;;2.30;2.10;;;24.50;80.60;;;;;;494036;241;28937;-70
2022/08/12 10:32:29;;;;;;;2.57;2.37;;;24.50;80.90;;;;;;493993;241;28798;-70
2022/08/12 10:34:30;;;;;;;7.43;2.80;;;24.60;80.30;;;;;;494020;241;28835;-69
2022/08/12 10:36:32;;;;;;;1.90;1.80;;;24.80;79.40;;;;;;493890;241;29224;-72
2022/08/12 10:38:33;;;;;;;2.47;2.27;;;24.70;80.00;;;;;;494028;241;29416;-69
2022/08/12 10:43:39;;;;;;;2.50;2.30;;;24.40;78.40;;;;;;494014;241;29282;-72
2022/08/12 10:44:59;;;;;;;4.10;2.30;;;24.70;79.90;;;;;;493858;241;29255;-69
2022/08/12 10:46:59;;;;;;;2.63;2.43;;;24.70;79.60;;;;;;493857;241;29383;-68
2022/08/12 10:49:01;;;;;;;3.20;2.43;;;24.70;79.30;;;;;;494027;241;28887;-69
2022/08/12 10:51:05;;;;;;;2.30;2.10;;;24.80;79.50;;;;;;494051;237;28962;-72
2022/08/12 10:53:08;;;;;;;3.30;2.20;;;24.70;78.70;;;;;;494046;241;28843;-73
2022/08/12 10:55:07;;;;;;;2.40;2.30;;;24.80;78.70;;;;;;493822;241;28883;-69
2022/08/12 10:57:09;;;;;;;3.67;2.50;;;25.10;77.00;;;;;;493903;241;28838;-69
2022/08/12 10:59:10;;;;;;;3.10;2.37;;;25.00;75.90;;;;;;493974;241;28827;-69
2022/08/12 11:01:11;;;;;;;5.63;2.70;;;25.00;77.40;;;;;;494024;241;28872;-69
2022/08/12 11:03:12;;;;;;;6.40;2.27;;;25.10;77.70;;;;;;493890;241;28828;-70
2022/08/12 11:05:14;;;;;;;2.40;2.03;;;25.10;77.80;;;;;;494019;241;29403;-71
2022/08/12 11:07:15;;;;;;;4.10;2.50;;;25.10;76.30;;;;;;493897;241;29321;-69
2022/08/12 11:09:16;;;;;;;3.53;2.13;;;25.30;73.90;;;;;;494013;241;30020;-69
2022/08/12 11:11:19;;;;;;;2.40;2.20;;;25.30;74.30;;;;;;494020;241;29356;-69
2022/08/12 11:13:19;;;;;;;2.50;2.30;;;25.30;73.30;;;;;;493857;241;28842;-72
2022/08/12 11:15:20;;;;;;;2.60;2.40;;;24.90;73.60;;;;;;494047;241;28807;-68
2022/08/12 11:17:21;;;;;;;2.40;2.00;;;25.10;74.40;;;;;;493910;241;28896;-69
2022/08/12 11:19:22;;;;;;;3.00;2.00;;;25.20;74.20;;;;;;494033;241;28894;-69
2022/08/12 11:21:24;;;;;;;2.20;2.10;;;25.40;73.80;;;;;;494040;241;28845;-69
2022/08/12 11:23:25;;;;;;;2.50;2.30;;;25.80;73.00;;;;;;494022;241;28926;-72
2022/08/12 11:25:26;;;;;;;3.83;2.30;;;25.70;73.30;;;;;;494028;241;28890;-69
2022/08/12 11:27:27;;;;;;;5.63;2.47;;;25.40;74.50;;;;;;493977;241;28832;-69
2022/08/12 11:29:30;;;;;;;2.00;1.90;;;25.60;72.50;;;;;;494031;241;29424;-69
2022/08/12 11:31:30;;;;;;;2.20;2.10;;;25.50;72.70;;;;;;493986;241;29252;-70
2022/08/12 11:33:31;;;;;;;3.27;2.10;;;25.30;73.60;;;;;;494053;241;29313;-72
2022/08/12 11:35:32;;;;;;;4.90;2.50;;;25.40;73.30;;;;;;493801;241;29247;-70
2022/08/12 11:37:36;;;;;;;3.13;2.10;;;25.50;73.70;;;;;;493934;241;28851;-70
2022/08/12 11:39:35;;;;;;;2.27;2.13;;;25.60;73.60;;;;;;493881;241;28906;-69
2022/08/12 11:41:38;;;;;;;2.07;1.97;;;25.60;72.80;;;;;;493994;241;28877;-70
2022/08/12 11:43:37;;;;;;;3.40;2.10;;;25.60;73.40;;;;;;493946;241;28943;-72
2022/08/12 11:45:39;;;;;;;2.00;1.90;;;25.60;73.90;;;;;;494038;241;28780;-69
2022/08/12 11:47:40;;;;;;;2.37;2.17;;;25.70;73.60;;;;;;493913;241;28843;-70
2022/08/12 11:49:41;;;;;;;2.57;2.00;;;25.70;74.20;;;;;;494026;241;28807;-68
2022/08/12 11:51:42;;;;;;;4.30;2.43;;;25.80;72.90;;;;;;493977;241;28854;-69
2022/08/12 11:53:44;;;;;;;3.63;2.03;;;26.00;73.60;;;;;;494050;241;28865;-72
2022/08/12 11:55:45;;;;;;;2.30;2.20;;;26.00;72.60;;;;;;494019;241;29276;-70
2022/08/12 11:57:46;;;;;;;2.57;1.90;;;25.90;73.70;;;;;;493937;241;29384;-69
2022/08/12 11:59:47;;;;;;;2.10;2.00;;;26.00;72.80;;;;;;493996;241;29336;-69
2022/08/12 12:01:49;;;;;;;3.53;1.90;;;26.10;70.90;;;;;;494036;241;28917;-70
2022/08/12 12:03:50;;;;;;;3.13;1.90;;;26.10;72.20;;;;;;494027;241;28880;-71
2022/08/12 12:05:51;;;;;;;4.60;2.30;;;26.10;72.40;;;;;;494013;241;28795;-69
2022/08/12 12:07:52;;;;;;;2.10;2.00;;;25.90;72.80;;;;;;493898;241;28837;-70
2022/08/12 12:09:54;;;;;;;3.00;2.20;;;25.90;73.10;;;;;;493986;241;28955;-69
2022/08/12 12:11:55;;;;;;;2.43;2.20;;;26.00;74.20;;;;;;493931;241;28845;-69
2022/08/12 12:13:56;;;;;;;2.00;1.90;;;25.90;74.40;;;;;;494032;241;28886;-73